createdAt,value
2023-05-21T00:00:46.398Z,28.64
2023-05-21T00:01:51.458Z,28.66
2023-05-21T00:02:59.633Z,28.68
2023-05-21T00:04:05.347Z,28.69
2023-05-21T00:05:15.899Z,28.71
2023-05-21T00:06:22.601Z,28.73
2023-05-21T00:07:28.963Z,28.75
2023-05-21T00:08:35.430Z,28.76
2023-05-21T00:09:41.812Z,28.79
2023-05-21T00:10:46.900Z,28.80
2023-05-21T00:11:53.220Z,28.83
2023-05-21T00:12:58.219Z,28.85
2023-05-21T00:14:04.591Z,28.85
2023-05-21T00:15:10.555Z,28.88
2023-05-21T00:16:17.005Z,28.90
2023-05-21T00:17:22.118Z,28.91
2023-05-21T00:18:28.366Z,28.92
2023-05-21T00:19:34.145Z,28.95
2023-05-21T00:20:42.990Z,28.96
2023-05-21T00:21:49.725Z,28.97
2023-05-21T00:22:56.157Z,29.01
2023-05-21T00:24:01.243Z,29.03
2023-05-21T00:25:08.185Z,29.05
2023-05-21T00:26:13.335Z,29.06
2023-05-21T00:27:19.820Z,29.09
2023-05-21T00:28:26.171Z,29.12
2023-05-21T00:29:31.453Z,29.14
2023-05-21T00:30:37.763Z,29.15
2023-05-21T00:31:42.939Z,29.17
2023-05-21T00:32:49.428Z,29.19
2023-05-21T00:33:54.528Z,29.19
2023-05-21T00:35:01.162Z,29.23
2023-05-21T00:36:07.444Z,29.23
2023-05-21T00:37:16.902Z,29.25
2023-05-21T00:38:21.947Z,29.26
2023-05-21T00:39:28.525Z,29.28
2023-05-21T00:40:34.022Z,29.31
2023-05-21T00:41:41.427Z,29.32
2023-05-21T00:42:51.992Z,29.34
2023-05-21T00:43:58.544Z,29.35
2023-05-21T00:45:06.826Z,29.35
2023-05-21T00:46:15.049Z,29.34
2023-05-21T00:47:20.184Z,29.35
2023-05-21T00:48:27.413Z,29.37
2023-05-21T00:49:34.607Z,29.38
2023-05-21T00:50:42.376Z,29.40
2023-05-21T00:51:47.446Z,29.43
2023-05-21T00:52:55.705Z,29.46
2023-05-21T00:54:00.904Z,29.49
2023-05-21T00:55:07.859Z,29.52
2023-05-21T00:56:13.026Z,29.54
2023-05-21T00:57:21.939Z,29.57
2023-05-21T00:58:27.746Z,29.59
2023-05-21T00:59:35.392Z,29.61
2023-05-21T01:00:41.954Z,29.61
2023-05-21T01:01:56.876Z,29.63
2023-05-21T01:03:02.096Z,29.65
2023-05-21T01:04:08.988Z,29.68
2023-05-21T01:05:14.430Z,29.70
2023-05-21T01:06:23.560Z,29.70
2023-05-21T01:07:28.625Z,29.72
2023-05-21T01:08:37.617Z,29.73
2023-05-21T01:09:42.803Z,29.75
2023-05-21T01:10:49.176Z,29.77
2023-05-21T01:11:54.668Z,29.79
2023-05-21T01:13:02.155Z,29.81
2023-05-21T01:14:09.289Z,29.84
2023-05-21T01:15:16.138Z,29.87
2023-05-21T01:16:21.255Z,29.89
2023-05-21T01:17:27.765Z,29.91
2023-05-21T01:18:36.419Z,29.91
2023-05-21T01:20:49.503Z,29.89
2023-05-21T01:22:00.007Z,29.91
2023-05-21T01:23:06.715Z,29.94
2023-05-21T01:24:13.107Z,29.96
2023-05-21T01:25:19.678Z,30.01
2023-05-21T01:26:28.896Z,30.03
2023-05-21T01:27:34.960Z,30.06
2023-05-21T01:28:39.940Z,30.10
2023-05-21T01:29:46.298Z,30.12
2023-05-21T01:30:51.532Z,30.15
2023-05-21T01:32:06.996Z,30.19
2023-05-21T01:33:17.747Z,30.21
2023-05-21T01:34:27.515Z,30.23
2023-05-21T01:35:35.987Z,30.25
2023-05-21T01:36:44.788Z,30.27
2023-05-21T01:37:56.587Z,30.31
2023-05-21T01:39:08.356Z,30.33
2023-05-21T01:40:16.126Z,30.35
2023-05-21T01:41:22.880Z,30.37
2023-05-21T01:42:28.440Z,30.41
2023-05-21T01:43:37.660Z,30.44
2023-05-21T01:44:43.025Z,30.47
2023-05-21T01:45:49.937Z,30.47
2023-05-21T01:46:55.741Z,30.48
2023-05-21T01:48:02.322Z,30.48
2023-05-21T01:49:08.439Z,30.50
2023-05-21T01:50:15.474Z,30.54
2023-05-21T01:51:20.636Z,30.57
2023-05-21T01:52:27.056Z,30.60
2023-05-21T01:53:32.089Z,30.62
2023-05-21T01:54:40.126Z,30.62
2023-05-21T01:55:45.168Z,30.65
2023-05-21T01:56:51.908Z,30.69
2023-05-21T01:57:57.878Z,30.73
2023-05-21T01:59:05.538Z,30.76
2023-05-21T02:00:12.281Z,30.76
2023-05-21T02:01:18.828Z,30.76
2023-05-21T02:02:23.956Z,30.75
2023-05-21T02:03:32.306Z,30.76
2023-05-21T02:04:37.611Z,30.75
2023-05-21T02:05:44.019Z,30.77
2023-05-21T02:06:49.146Z,30.79
2023-05-21T02:07:57.417Z,30.82
2023-05-21T02:09:02.559Z,30.82
2023-05-21T02:10:11.922Z,30.84
2023-05-21T02:11:16.963Z,30.87
2023-05-21T02:12:23.480Z,30.90
2023-05-21T02:13:30.671Z,30.90
2023-05-21T02:14:37.114Z,30.92
2023-05-21T02:15:42.118Z,30.94
2023-05-21T02:16:48.509Z,30.95
2023-05-21T02:17:54.410Z,30.94
2023-05-21T02:19:02.044Z,30.95
2023-05-21T02:20:12.839Z,30.97
2023-05-21T02:21:19.308Z,30.98
2023-05-21T02:22:24.470Z,30.99
2023-05-21T02:23:30.778Z,31.01
2023-05-21T02:24:35.954Z,31.04
2023-05-21T02:25:44.061Z,31.06
2023-05-21T02:26:51.139Z,31.07
2023-05-21T02:27:58.075Z,31.08
2023-05-21T02:29:03.359Z,31.10
2023-05-21T02:30:11.311Z,31.11
2023-05-21T02:31:16.349Z,31.12
2023-05-21T02:32:22.732Z,31.13
2023-05-21T02:33:27.957Z,31.16
2023-05-21T02:34:34.364Z,31.20
2023-05-21T02:35:39.500Z,31.25
2023-05-21T02:36:45.919Z,31.29
2023-05-21T02:37:50.962Z,31.32
2023-05-21T02:38:59.069Z,31.34
2023-05-21T02:40:05.492Z,31.36
2023-05-21T02:41:16.825Z,31.38
2023-05-21T02:42:21.869Z,31.37
2023-05-21T02:43:28.232Z,31.39
2023-05-21T02:44:33.250Z,31.37
2023-05-21T02:45:39.884Z,31.42
2023-05-21T02:46:45.071Z,31.44
2023-05-21T02:47:51.621Z,31.45
2023-05-21T02:48:56.691Z,31.46
2023-05-21T02:50:04.166Z,31.46
2023-05-21T02:51:09.258Z,31.48
2023-05-21T02:52:15.760Z,31.52
2023-05-21T02:53:20.880Z,31.56
2023-05-21T02:54:27.276Z,31.59
2023-05-21T02:55:32.433Z,31.63
2023-05-21T02:56:40.471Z,31.66
2023-05-21T02:57:45.467Z,31.70
2023-05-21T02:58:53.276Z,31.73
2023-05-21T03:00:00.171Z,31.75
2023-05-21T03:01:06.578Z,31.77
2023-05-21T03:02:11.737Z,31.80
2023-05-21T03:03:18.275Z,31.82
2023-05-21T03:04:23.665Z,31.86
2023-05-21T03:05:30.161Z,31.88
2023-05-21T03:06:36.140Z,31.90
2023-05-21T03:07:43.328Z,31.92
2023-05-21T03:08:48.413Z,31.94
2023-05-21T03:09:54.920Z,31.96
2023-05-21T03:10:59.946Z,31.97
2023-05-21T03:12:08.442Z,32.00
2023-05-21T03:13:14.885Z,32.01
2023-05-21T03:14:20.037Z,32.01
2023-05-21T03:15:26.479Z,32.01
2023-05-21T03:16:35.741Z,32.05
2023-05-21T03:17:43.665Z,32.08
2023-05-21T03:18:55.939Z,32.09
2023-05-21T03:20:07.212Z,32.12
2023-05-21T03:21:14.524Z,32.17
2023-05-21T03:22:21.401Z,32.21
2023-05-21T03:23:28.322Z,32.24
2023-05-21T03:24:34.393Z,32.28
2023-05-21T03:25:40.682Z,32.27
2023-05-21T03:26:45.734Z,32.30
2023-05-21T03:27:53.795Z,32.29
2023-05-21T03:28:59.245Z,32.31
2023-05-21T03:30:06.727Z,32.31
2023-05-21T03:31:13.421Z,32.31
2023-05-21T03:32:18.428Z,32.31
2023-05-21T03:33:25.411Z,32.32
2023-05-21T03:34:30.643Z,32.35
2023-05-21T03:35:37.241Z,32.37
2023-05-21T03:36:43.891Z,32.36
2023-05-21T03:37:48.944Z,32.37
2023-05-21T03:38:55.412Z,32.38
2023-05-21T03:40:00.466Z,32.39
2023-05-21T03:41:06.991Z,32.40
2023-05-21T03:42:12.134Z,32.44
2023-05-21T03:43:20.265Z,32.46
2023-05-21T03:44:25.337Z,32.47
2023-05-21T03:45:31.751Z,32.50
2023-05-21T03:46:36.973Z,32.53
2023-05-21T03:47:44.339Z,32.56
2023-05-21T03:48:49.492Z,32.59
2023-05-21T03:49:56.022Z,32.60
2023-05-21T03:51:01.255Z,32.60
2023-05-21T03:52:08.095Z,32.62
2023-05-21T03:53:13.818Z,32.65
2023-05-21T03:54:20.152Z,32.66
2023-05-21T03:55:25.377Z,32.67
2023-05-21T03:56:31.687Z,32.70
2023-05-21T03:57:36.794Z,32.72
2023-05-21T03:58:45.564Z,32.74
2023-05-21T03:59:50.712Z,32.76
2023-05-21T04:00:57.146Z,32.77
2023-05-21T04:02:02.220Z,32.79
2023-05-21T04:03:08.720Z,32.80
2023-05-21T04:04:14.049Z,32.81
2023-05-21T04:05:20.578Z,32.84
2023-05-21T04:06:25.723Z,32.85
2023-05-21T04:07:32.583Z,32.85
2023-05-21T04:08:38.076Z,32.87
2023-05-21T04:09:44.877Z,32.89
2023-05-21T04:10:50.001Z,32.90
2023-05-21T04:12:00.352Z,32.91
2023-05-21T04:13:05.568Z,32.91
2023-05-21T04:14:14.102Z,32.94
2023-05-21T04:15:19.957Z,32.97
2023-05-21T04:16:26.470Z,32.99
2023-05-21T04:17:31.682Z,33.02
2023-05-21T04:18:38.024Z,33.04
2023-05-21T04:19:43.356Z,33.06
2023-05-21T04:20:51.286Z,33.09
2023-05-21T04:21:56.358Z,33.12
2023-05-21T04:23:02.891Z,33.13
2023-05-21T04:24:08.092Z,33.15
2023-05-21T04:25:14.576Z,33.18
2023-05-21T04:26:19.641Z,33.21
2023-05-21T04:27:26.704Z,33.22
2023-05-21T04:28:31.813Z,33.25
2023-05-21T04:29:44.030Z,33.26
2023-05-21T04:30:49.582Z,33.26
2023-05-21T04:31:56.006Z,33.29
2023-05-21T04:33:01.520Z,33.30
2023-05-21T04:34:08.076Z,33.31
2023-05-21T04:35:13.497Z,33.33
2023-05-21T04:36:20.299Z,33.35
2023-05-21T04:37:26.106Z,33.39
2023-05-21T04:38:32.646Z,33.40
2023-05-21T04:39:37.748Z,33.43
2023-05-21T04:40:44.937Z,33.46
2023-05-21T04:41:52.140Z,33.47
2023-05-21T04:42:58.497Z,33.50
2023-05-21T04:44:03.575Z,33.50
2023-05-21T04:45:12.924Z,33.51
2023-05-21T04:46:17.966Z,33.53
2023-05-21T04:47:24.425Z,33.56
2023-05-21T04:48:30.119Z,33.57
2023-05-21T04:49:37.138Z,33.55
2023-05-21T04:50:42.856Z,33.56
2023-05-21T04:51:50.638Z,33.56
2023-05-21T04:52:56.112Z,33.58
2023-05-21T04:54:02.427Z,33.59
2023-05-21T04:55:08.287Z,33.62
2023-05-21T04:56:14.883Z,33.66
2023-05-21T04:57:20.105Z,33.69
2023-05-21T04:58:27.682Z,33.70
2023-05-21T04:59:34.236Z,33.72
2023-05-21T05:00:41.642Z,33.75
2023-05-21T05:01:48.081Z,33.79
2023-05-21T05:02:53.107Z,33.83
2023-05-21T05:03:59.662Z,33.85
2023-05-21T05:05:04.860Z,33.89
2023-05-21T05:06:11.509Z,33.90
2023-05-21T05:07:16.950Z,33.93
2023-05-21T05:08:23.411Z,33.96
2023-05-21T05:09:28.527Z,34.00
2023-05-21T05:10:34.888Z,34.02
2023-05-21T05:11:39.896Z,34.05
2023-05-21T05:12:46.389Z,34.08
2023-05-21T05:13:51.472Z,34.09
2023-05-21T05:14:57.845Z,34.10
2023-05-21T05:16:04.761Z,34.12
2023-05-21T05:17:12.012Z,34.13
2023-05-21T05:18:17.934Z,34.16
2023-05-21T05:19:24.365Z,34.18
2023-05-21T05:20:29.519Z,34.20
2023-05-21T05:21:35.971Z,34.24
2023-05-21T05:22:42.319Z,34.29
2023-05-21T05:23:47.404Z,34.31
2023-05-21T05:24:53.845Z,34.33
2023-05-21T05:25:58.994Z,34.37
2023-05-21T05:27:05.398Z,34.39
2023-05-21T05:28:10.373Z,34.42
2023-05-21T05:29:16.792Z,34.45
2023-05-21T05:30:22.152Z,34.46
2023-05-21T05:31:30.305Z,34.49
2023-05-21T05:32:35.580Z,34.50
2023-05-21T05:33:42.458Z,34.51
2023-05-21T05:34:48.616Z,34.54
2023-05-21T05:35:54.892Z,34.56
2023-05-21T05:37:01.372Z,34.57
2023-05-21T05:38:06.522Z,34.60
2023-05-21T05:39:13.154Z,34.61
2023-05-21T05:40:18.400Z,34.64
2023-05-21T05:41:24.840Z,34.66
2023-05-21T05:42:30.086Z,34.68
2023-05-21T05:43:36.416Z,34.71
2023-05-21T05:44:41.439Z,34.73
2023-05-21T05:45:47.852Z,34.75
2023-05-21T05:46:54.599Z,34.75
2023-05-21T05:48:01.049Z,34.77
2023-05-21T05:49:06.173Z,34.79
2023-05-21T05:50:13.083Z,34.79
2023-05-21T05:51:19.661Z,34.84
2023-05-21T05:52:24.774Z,34.89
2023-05-21T05:53:31.215Z,34.91
2023-05-21T05:54:36.417Z,34.93
2023-05-21T05:55:42.897Z,34.94
2023-05-21T05:56:47.993Z,34.97
2023-05-21T05:57:54.378Z,35.00
2023-05-21T05:59:01.319Z,35.03
2023-05-21T06:00:08.425Z,35.05
2023-05-21T06:01:14.819Z,35.08
2023-05-21T06:02:21.507Z,35.09
2023-05-21T06:03:28.004Z,35.11
2023-05-21T06:04:33.184Z,35.12
2023-05-21T06:05:39.932Z,35.15
2023-05-21T06:06:45.216Z,35.18
2023-05-21T06:07:51.554Z,35.23
2023-05-21T06:08:57.804Z,35.26
2023-05-21T06:10:02.830Z,35.28
2023-05-21T06:11:09.234Z,35.29
2023-05-21T06:12:17.314Z,35.31
2023-05-21T06:13:23.726Z,35.32
2023-05-21T06:14:28.793Z,35.33
2023-05-21T06:15:35.380Z,35.36
2023-05-21T06:16:40.842Z,35.38
2023-05-21T06:17:48.885Z,35.41
2023-05-21T06:18:53.994Z,35.44
2023-05-21T06:20:00.839Z,35.46
2023-05-21T06:21:05.974Z,35.50
2023-05-21T06:22:12.381Z,35.52
2023-05-21T06:23:17.533Z,35.54
2023-05-21T06:24:24.245Z,35.55
2023-05-21T06:25:29.340Z,35.57
2023-05-21T06:26:35.703Z,35.57
2023-05-21T06:27:40.798Z,35.60
2023-05-21T06:28:47.200Z,35.65
2023-05-21T06:29:52.651Z,35.69
2023-05-21T06:30:59.065Z,35.72
2023-05-21T06:32:04.189Z,35.76
2023-05-21T06:33:12.782Z,35.80
2023-05-21T06:34:19.450Z,35.83
2023-05-21T06:35:25.774Z,35.84
2023-05-21T06:36:33.648Z,35.85
2023-05-21T06:37:40.061Z,35.86
2023-05-21T06:38:45.243Z,35.89
2023-05-21T06:39:51.811Z,35.91
2023-05-21T06:40:59.722Z,35.93
2023-05-21T06:42:06.100Z,35.96
2023-05-21T06:43:11.177Z,35.99
2023-05-21T06:44:17.762Z,36.02
2023-05-21T06:45:23.101Z,36.04
2023-05-21T06:46:29.713Z,36.05
2023-05-21T06:47:34.837Z,36.05
2023-05-21T06:48:42.851Z,36.06
2023-05-21T06:49:49.179Z,36.06
2023-05-21T06:50:54.276Z,36.06
2023-05-21T06:52:00.629Z,36.09
2023-05-21T06:53:05.724Z,36.10
2023-05-21T06:54:14.231Z,36.13
2023-05-21T06:55:19.324Z,36.16
2023-05-21T06:56:25.780Z,36.21
2023-05-21T06:57:30.729Z,36.26
2023-05-21T06:58:37.511Z,36.30
2023-05-21T06:59:43.811Z,36.33
2023-05-21T07:00:48.944Z,36.34
2023-05-21T07:01:55.463Z,36.35
2023-05-21T07:03:00.630Z,36.38
2023-05-21T07:04:08.893Z,36.39
2023-05-21T07:05:13.977Z,36.40
2023-05-21T07:06:20.376Z,36.42
2023-05-21T07:07:26.842Z,36.45
2023-05-21T07:08:31.889Z,36.48
2023-05-21T07:09:38.206Z,36.50
2023-05-21T07:10:43.664Z,36.52
2023-05-21T07:11:50.112Z,36.56
2023-05-21T07:12:55.275Z,36.59
2023-05-21T07:14:03.319Z,36.60
2023-05-21T07:15:09.341Z,36.63
2023-05-21T07:16:15.833Z,36.67
2023-05-21T07:17:22.200Z,36.69
2023-05-21T07:18:27.414Z,36.72
2023-05-21T07:19:35.558Z,36.76
2023-05-21T07:20:40.730Z,36.79
2023-05-21T07:21:47.162Z,36.79
2023-05-21T07:22:52.154Z,36.84
2023-05-21T07:23:58.722Z,36.86
2023-05-21T07:25:03.889Z,36.87
2023-05-21T07:26:10.308Z,36.92
2023-05-21T07:27:25.477Z,36.94
2023-05-21T07:28:41.861Z,36.97
2023-05-21T07:29:46.911Z,37.00
2023-05-21T07:30:53.326Z,37.01
2023-05-21T07:31:59.863Z,37.02
2023-05-21T07:33:04.972Z,37.05
2023-05-21T07:34:11.487Z,37.07
2023-05-21T07:35:18.310Z,37.08
2023-05-21T07:36:24.767Z,37.09
2023-05-21T07:37:30.037Z,37.11
2023-05-21T07:38:36.806Z,37.13
2023-05-21T07:39:41.826Z,37.14
2023-05-21T07:40:48.312Z,37.15
2023-05-21T07:41:53.458Z,37.19
2023-05-21T07:42:59.887Z,37.21
2023-05-21T07:44:05.040Z,37.25
2023-05-21T07:45:12.308Z,37.26
2023-05-21T07:46:18.785Z,37.28
2023-05-21T07:47:24.906Z,37.27
2023-05-21T07:48:32.128Z,37.26
2023-05-21T07:49:38.664Z,37.26
2023-05-21T07:50:46.666Z,37.25
2023-05-21T07:51:52.091Z,37.28
2023-05-21T07:52:58.507Z,37.30
2023-05-21T07:54:03.528Z,37.32
2023-05-21T07:55:11.320Z,37.36
2023-05-21T07:56:17.644Z,37.40
2023-05-21T07:57:25.035Z,37.45
2023-05-21T07:58:32.440Z,37.46
2023-05-21T07:59:38.909Z,37.47
2023-05-21T08:00:46.279Z,37.48
2023-05-21T08:01:52.723Z,37.52
2023-05-21T08:02:58.618Z,37.54
2023-05-21T08:04:07.108Z,37.55
2023-05-21T08:05:12.645Z,37.57
2023-05-21T08:06:20.714Z,37.60
2023-05-21T08:07:25.867Z,37.64
2023-05-21T08:08:32.294Z,37.68
2023-05-21T08:09:38.682Z,37.71
2023-05-21T08:10:43.841Z,37.73
2023-05-21T08:11:50.247Z,37.77
2023-05-21T08:12:55.374Z,37.79
2023-05-21T08:14:01.828Z,37.83
2023-05-21T08:15:07.687Z,37.87
2023-05-21T08:16:14.292Z,37.88
2023-05-21T08:17:19.368Z,37.90
2023-05-21T08:18:26.760Z,37.92
2023-05-21T08:19:31.828Z,37.96
2023-05-21T08:20:38.345Z,38.03
2023-05-21T08:21:45.080Z,38.07
2023-05-21T08:22:51.457Z,38.12
2023-05-21T08:23:58.475Z,38.14
2023-05-21T08:25:05.164Z,38.17
2023-05-21T08:26:10.295Z,38.22
2023-05-21T08:27:17.443Z,38.26
2023-05-21T08:28:23.844Z,38.30
2023-05-21T08:29:30.169Z,38.35
2023-05-21T08:30:35.457Z,38.41
2023-05-21T08:31:42.908Z,38.44
2023-05-21T08:32:48.030Z,38.49
2023-05-21T08:33:57.838Z,38.53
2023-05-21T08:35:02.905Z,38.56
2023-05-21T08:36:10.060Z,38.59
2023-05-21T08:37:16.834Z,38.60
2023-05-21T08:38:23.291Z,38.60
2023-05-21T08:39:28.310Z,38.62
2023-05-21T08:40:34.724Z,38.65
2023-05-21T08:41:40.868Z,38.69
2023-05-21T08:42:49.460Z,38.74
2023-05-21T08:43:59.378Z,38.80
2023-05-21T08:45:10.888Z,38.85
2023-05-21T08:46:16.298Z,38.89
2023-05-21T08:47:27.136Z,38.92
2023-05-21T08:48:35.062Z,38.94
2023-05-21T08:49:41.541Z,38.98
2023-05-21T08:50:47.054Z,39.04
2023-05-21T08:51:53.665Z,39.09
2023-05-21T08:53:00.661Z,39.15
2023-05-21T08:54:11.213Z,39.19
2023-05-21T08:55:18.217Z,39.27
2023-05-21T08:56:24.228Z,39.33
2023-05-21T08:57:31.230Z,39.40
2023-05-21T08:58:37.070Z,39.44
2023-05-21T08:59:45.598Z,39.48
2023-05-21T09:00:50.807Z,39.55
2023-05-21T09:01:58.840Z,39.63
2023-05-21T09:03:08.776Z,39.68
2023-05-21T09:04:21.368Z,39.74
2023-05-21T09:05:30.259Z,39.83
2023-05-21T09:06:35.324Z,39.91
2023-05-21T09:07:46.838Z,39.94
2023-05-21T09:09:00.134Z,39.98
2023-05-21T09:10:09.640Z,40.01
2023-05-21T09:11:14.861Z,40.04
2023-05-21T09:12:21.538Z,40.05
2023-05-21T09:13:29.558Z,40.10
2023-05-21T09:14:36.051Z,40.13
2023-05-21T09:15:43.291Z,40.19
2023-05-21T09:16:50.136Z,40.26
2023-05-21T09:17:57.033Z,40.29
2023-05-21T09:19:04.359Z,40.36
2023-05-21T09:20:13.938Z,40.44
2023-05-21T09:21:29.941Z,40.48
2023-05-21T09:22:35.209Z,40.53
2023-05-21T09:23:41.583Z,40.59
2023-05-21T09:24:49.282Z,40.58
2023-05-21T09:25:55.642Z,40.50
2023-05-21T09:27:01.190Z,40.44
2023-05-21T09:28:07.831Z,40.35
2023-05-21T09:29:13.149Z,40.29
2023-05-21T09:30:25.244Z,40.23
2023-05-21T09:31:34.211Z,40.17
2023-05-21T09:32:39.446Z,40.19
2023-05-21T09:33:50.793Z,40.24
2023-05-21T09:34:55.876Z,40.30
2023-05-21T09:36:02.230Z,40.35
2023-05-21T09:37:19.940Z,40.29
2023-05-21T09:38:33.471Z,40.28
2023-05-21T09:39:38.571Z,40.23
2023-05-21T09:40:50.005Z,40.20
2023-05-21T09:41:55.190Z,40.19
2023-05-21T09:43:01.543Z,40.22
2023-05-21T09:44:07.105Z,40.20
2023-05-21T09:45:13.814Z,40.11
2023-05-21T09:46:28.239Z,40.03
2023-05-21T09:47:34.482Z,39.91
2023-05-21T09:48:41.734Z,39.69
2023-05-21T09:49:47.962Z,39.41
2023-05-21T09:50:52.474Z,39.17
2023-05-21T09:52:01.563Z,38.97
2023-05-21T09:53:14.548Z,38.77
2023-05-21T09:54:20.415Z,38.66
2023-05-21T09:55:27.431Z,38.47
2023-05-21T09:56:33.575Z,38.34
2023-05-21T09:57:45.140Z,38.22
2023-05-21T09:58:49.797Z,38.06
2023-05-21T09:59:55.603Z,37.92
2023-05-21T10:01:01.338Z,37.77
2023-05-21T10:02:07.952Z,37.64
2023-05-21T10:03:16.357Z,37.53
2023-05-21T10:04:21.293Z,37.43
2023-05-21T10:05:30.822Z,37.31
2023-05-21T10:06:38.261Z,37.21
2023-05-21T10:07:45.629Z,37.14
2023-05-21T10:09:09.882Z,37.06
2023-05-21T10:10:17.796Z,37.05
2023-05-21T10:11:25.389Z,37.00
2023-05-21T10:12:34.299Z,36.91
2023-05-21T10:13:39.339Z,36.85
2023-05-21T10:14:46.325Z,36.81
2023-05-21T10:15:55.157Z,36.77
2023-05-21T10:17:01.159Z,36.68
2023-05-21T10:18:06.198Z,36.56
2023-05-21T10:19:13.199Z,36.49
2023-05-21T10:20:20.165Z,36.38
2023-05-21T10:21:26.931Z,36.28
2023-05-21T10:22:31.777Z,36.21
2023-05-21T10:23:38.811Z,36.11
2023-05-21T10:24:44.118Z,36.08
2023-05-21T10:25:50.056Z,36.00
2023-05-21T10:26:55.182Z,35.94
2023-05-21T10:28:02.667Z,35.89
2023-05-21T10:29:07.290Z,35.87
2023-05-21T10:30:13.857Z,35.85
2023-05-21T10:31:18.493Z,35.79
2023-05-21T10:32:25.323Z,35.75
2023-05-21T10:33:30.290Z,35.70
2023-05-21T10:34:36.258Z,35.67
2023-05-21T10:35:40.969Z,35.62
2023-05-21T10:36:47.506Z,35.61
2023-05-21T10:37:55.968Z,35.57
2023-05-21T10:39:02.315Z,35.54
2023-05-21T10:40:07.749Z,35.50
2023-05-21T10:41:14.692Z,35.46
2023-05-21T10:42:41.604Z,35.43
2023-05-21T10:43:59.020Z,35.34
2023-05-21T10:45:15.154Z,35.33
2023-05-21T10:46:31.061Z,35.31
2023-05-21T10:48:07.787Z,35.31
2023-05-21T10:49:36.738Z,35.22
2023-05-21T10:50:56.915Z,35.20
2023-05-21T10:52:09.592Z,35.18
2023-05-21T10:53:23.152Z,35.13
2023-05-21T10:54:57.360Z,35.11
2023-05-21T10:56:11.832Z,35.09
2023-05-21T10:57:52.925Z,35.09
2023-05-21T10:59:19.367Z,35.04
2023-05-21T11:00:24.047Z,34.97
2023-05-21T11:01:36.340Z,34.92
2023-05-21T11:02:41.032Z,34.88
2023-05-21T11:03:46.975Z,34.81
2023-05-21T11:05:01.643Z,34.74
2023-05-21T11:06:07.366Z,34.66
2023-05-21T11:07:13.504Z,34.60
2023-05-21T11:08:27.887Z,34.56
2023-05-21T11:09:33.752Z,34.52
2023-05-21T11:10:41.826Z,34.50
2023-05-21T11:11:49.379Z,34.46
2023-05-21T11:13:14.781Z,34.43
2023-05-21T11:14:38.327Z,34.42
2023-05-21T11:16:08.821Z,34.42
2023-05-21T11:17:16.172Z,34.40
2023-05-21T11:18:20.817Z,34.39
2023-05-21T11:19:37.555Z,34.36
2023-05-21T11:20:43.701Z,34.33
2023-05-21T11:21:53.331Z,34.29
2023-05-21T11:23:01.840Z,34.26
2023-05-21T11:24:09.681Z,34.25
2023-05-21T11:25:16.461Z,34.20
2023-05-21T11:26:21.807Z,34.19
2023-05-21T11:27:37.781Z,34.13
2023-05-21T11:28:42.937Z,34.12
2023-05-21T11:29:50.454Z,34.09
2023-05-21T11:31:25.442Z,34.06
2023-05-21T11:32:32.475Z,34.02
2023-05-21T11:33:37.050Z,34.01
2023-05-21T11:34:44.564Z,33.99
2023-05-21T11:36:04.815Z,33.96
2023-05-21T11:37:31.254Z,33.96
2023-05-21T11:38:37.238Z,33.96
2023-05-21T11:39:41.903Z,33.93
2023-05-21T11:40:55.817Z,33.92
2023-05-21T11:42:03.817Z,33.90
2023-05-21T11:43:10.427Z,33.86
2023-05-21T11:44:15.088Z,33.75
2023-05-21T11:45:23.877Z,33.61
2023-05-21T11:46:28.863Z,33.58
2023-05-21T11:47:35.539Z,33.47
2023-05-21T11:48:41.660Z,33.27
2023-05-21T11:49:46.934Z,33.10
2023-05-21T11:50:52.818Z,32.96
2023-05-21T11:51:57.662Z,32.85
2023-05-21T11:53:03.622Z,32.77
2023-05-21T11:54:09.827Z,32.67
2023-05-21T11:55:16.687Z,32.54
2023-05-21T11:56:21.400Z,32.37
2023-05-21T11:57:33.131Z,32.28
2023-05-21T11:58:38.954Z,32.19
2023-05-21T11:59:45.074Z,32.10
2023-05-21T12:00:55.860Z,31.92
2023-05-21T12:02:00.630Z,31.83
2023-05-21T12:03:08.200Z,31.69
2023-05-21T12:04:13.354Z,31.54
2023-05-21T12:05:20.026Z,31.41
2023-05-21T12:06:29.253Z,31.29
2023-05-21T12:07:35.214Z,31.26
2023-05-21T12:08:40.033Z,31.10
2023-05-21T12:09:46.796Z,31.05
2023-05-21T12:10:51.451Z,30.97
2023-05-21T12:11:57.341Z,30.88
2023-05-21T12:13:02.953Z,30.85
2023-05-21T12:14:11.991Z,30.82
2023-05-21T12:15:19.988Z,30.80
2023-05-21T12:16:26.186Z,30.76
2023-05-21T12:17:32.636Z,30.75
2023-05-21T12:18:38.713Z,30.67
2023-05-21T12:19:44.720Z,30.60
2023-05-21T12:20:49.420Z,30.54
2023-05-21T12:21:55.220Z,30.49
2023-05-21T12:23:01.929Z,30.43
2023-05-21T12:24:06.728Z,30.40
2023-05-21T12:25:13.503Z,30.40
2023-05-21T12:26:18.544Z,30.41
2023-05-21T12:27:25.399Z,30.40
2023-05-21T12:28:30.444Z,30.39
2023-05-21T12:29:36.914Z,30.36
2023-05-21T12:30:42.818Z,30.32
2023-05-21T12:31:52.477Z,30.32
2023-05-21T12:33:05.478Z,30.29
2023-05-21T12:34:10.281Z,30.27
2023-05-21T12:35:25.380Z,30.25
2023-05-21T12:36:35.140Z,30.25
2023-05-21T12:37:41.096Z,30.30
2023-05-21T12:38:48.033Z,30.31
2023-05-21T12:39:54.758Z,30.30
2023-05-21T12:40:59.704Z,30.28
2023-05-21T12:42:06.224Z,30.27
2023-05-21T12:43:10.913Z,30.26
2023-05-21T12:44:16.805Z,30.21
2023-05-21T12:45:23.461Z,30.20
2023-05-21T12:46:29.448Z,30.17
2023-05-21T12:47:37.259Z,30.08
2023-05-21T12:48:42.365Z,30.06
2023-05-21T12:49:50.311Z,30.03
2023-05-21T12:50:56.364Z,29.97
2023-05-21T12:52:00.940Z,29.96
2023-05-21T12:53:06.901Z,29.92
2023-05-21T12:54:14.713Z,29.83
2023-05-21T12:55:21.009Z,29.76
2023-05-21T12:56:27.050Z,29.74
2023-05-21T12:57:39.694Z,29.67
2023-05-21T12:58:46.074Z,29.67
2023-05-21T12:59:53.245Z,29.69
2023-05-21T13:00:57.902Z,29.66
2023-05-21T13:02:04.480Z,29.69
2023-05-21T13:03:10.718Z,29.74
2023-05-21T13:04:16.657Z,29.75
2023-05-21T13:05:21.631Z,29.79
2023-05-21T13:06:27.515Z,29.82
2023-05-21T13:07:33.328Z,29.81
2023-05-21T13:08:39.242Z,29.80
2023-05-21T13:09:43.813Z,29.81
2023-05-21T13:10:49.696Z,29.81
2023-05-21T13:11:54.257Z,29.85
2023-05-21T13:13:00.245Z,29.89
2023-05-21T13:14:04.912Z,29.88
2023-05-21T13:15:11.447Z,29.87
2023-05-21T13:16:16.127Z,29.86
2023-05-21T13:17:22.163Z,29.83
2023-05-21T13:18:28.765Z,29.81
2023-05-21T13:19:34.783Z,29.79
2023-05-21T13:20:39.807Z,29.75
2023-05-21T13:21:45.775Z,29.72
2023-05-21T13:22:52.202Z,29.67
2023-05-21T13:23:56.912Z,29.63
2023-05-21T13:25:02.796Z,29.57
2023-05-21T13:26:07.448Z,29.51
2023-05-21T13:27:13.294Z,29.46
2023-05-21T13:28:18.039Z,29.41
2023-05-21T13:29:23.894Z,29.40
2023-05-21T13:30:28.462Z,29.40
2023-05-21T13:31:34.354Z,29.42
2023-05-21T13:32:39.486Z,29.43
2023-05-21T13:33:47.132Z,29.42
2023-05-21T13:34:51.702Z,29.44
2023-05-21T13:35:57.559Z,29.43
2023-05-21T13:37:03.499Z,29.42
2023-05-21T13:38:08.037Z,29.39
2023-05-21T13:39:13.920Z,29.37
2023-05-21T13:40:18.795Z,29.34
2023-05-21T13:41:24.635Z,29.31
2023-05-21T13:42:29.177Z,29.30
2023-05-21T13:43:35.046Z,29.32
2023-05-21T13:44:41.918Z,29.34
2023-05-21T13:45:49.625Z,29.37
2023-05-21T13:46:54.431Z,29.41
2023-05-21T13:48:00.437Z,29.44
2023-05-21T13:49:09.533Z,29.50
2023-05-21T13:50:14.566Z,29.53
2023-05-21T13:51:37.512Z,29.53
2023-05-21T13:52:44.826Z,29.53
2023-05-21T13:53:49.365Z,29.50
2023-05-21T13:54:55.472Z,29.45
2023-05-21T13:56:01.509Z,29.38
2023-05-21T13:57:06.750Z,29.31
2023-05-21T13:58:12.598Z,29.26
2023-05-21T13:59:18.298Z,29.23
2023-05-21T14:00:24.219Z,29.22
2023-05-21T14:01:28.942Z,29.21
2023-05-21T14:02:35.534Z,29.21
2023-05-21T14:03:41.497Z,29.22
2023-05-21T14:04:49.580Z,29.19
2023-05-21T14:05:55.355Z,29.20
2023-05-21T14:07:00.044Z,29.16
2023-05-21T14:08:06.019Z,29.14
2023-05-21T14:09:10.641Z,29.11
2023-05-21T14:10:16.778Z,29.07
2023-05-21T14:11:21.335Z,29.08
2023-05-21T14:12:27.678Z,29.08
2023-05-21T14:13:32.217Z,29.10
2023-05-21T14:14:38.972Z,29.09
2023-05-21T14:15:44.152Z,29.09
2023-05-21T14:16:50.195Z,29.11
2023-05-21T14:17:56.083Z,29.14
2023-05-21T14:19:00.869Z,29.14
2023-05-21T14:20:12.076Z,29.13
2023-05-21T14:21:17.966Z,29.13
2023-05-21T14:22:22.751Z,29.10
2023-05-21T14:23:28.707Z,29.08
2023-05-21T14:24:34.578Z,29.11
2023-05-21T14:25:40.886Z,29.16